Time;durP1;ratioP1;P1;durP2;ratioP2;P2;SDS_P1;SDS_P2;PMS_P1;PMS_P2;Temp;Humidity;BMP_temperature;BMP_pressure;BME280_temperature;BME280_humidity;BME280_pressure;Samples;Min_cycle;Max_cycle;Signal;HPM_P1;HPM_P2
2023/09/10 00:01:05;;;;;;;4.15;3.33;;;27.60;76.70;;;;;;5074247;28;20528;-80
2023/09/10 00:03:32;;;;;;;4.38;3.97;;;27.60;76.70;;;;;;5056228;28;20481;-80
2023/09/10 00:06:05;;;;;;;3.80;3.28;;;27.60;76.70;;;;;;5074262;28;20153;-81
2023/09/10 00:08:30;;;;;;;4.80;4.35;;;27.60;76.80;;;;;;5073273;28;20036;-79
2023/09/10 00:10:56;;;;;;;4.32;3.92;;;27.50;76.80;;;;;;5074282;28;20453;-80
2023/09/10 00:13:23;;;;;;;3.80;3.50;;;27.50;76.80;;;;;;5074110;28;20039;-80
2023/09/10 00:15:49;;;;;;;4.25;3.85;;;27.50;76.90;;;;;;5073069;28;20028;-80
2023/09/10 00:18:15;;;;;;;4.68;4.00;;;27.50;77.00;;;;;;5072611;28;20040;-82
2023/09/10 00:20:40;;;;;;;5.20;4.25;;;27.50;77.00;;;;;;5074027;28;20037;-81
2023/09/10 00:23:07;;;;;;;4.00;3.60;;;27.50;77.10;;;;;;5056246;28;20051;-80
2023/09/10 00:25:33;;;;;;;4.43;4.03;;;27.50;77.10;;;;;;5056162;28;20080;-80
2023/09/10 00:27:59;;;;;;;5.32;4.03;;;27.40;77.10;;;;;;5074490;28;20082;-80
2023/09/10 00:30:27;;;;;;;6.00;5.43;;;27.40;77.20;;;;;;5073250;28;20453;-81
2023/09/10 00:32:53;;;;;;;5.53;4.15;;;27.40;77.10;;;;;;5056833;28;20033;-80
2023/09/10 00:35:19;;;;;;;5.53;4.22;;;27.40;77.10;;;;;;5073714;28;20432;-80
2023/09/10 00:37:44;;;;;;;4.10;3.80;;;27.40;77.10;;;;;;5073314;28;20523;-81
2023/09/10 00:40:10;;;;;;;4.40;3.80;;;27.30;77.30;;;;;;5073893;28;20089;-80
2023/09/10 00:42:37;;;;;;;4.40;4.00;;;27.30;77.40;;;;;;5074641;28;20031;-80
2023/09/10 00:45:05;;;;;;;4.30;3.90;;;27.30;77.40;;;;;;5074751;28;20453;-80
2023/09/10 00:47:31;;;;;;;4.35;3.95;;;27.30;77.60;;;;;;5073878;28;20408;-80
2023/09/10 00:49:57;;;;;;;4.38;3.97;;;27.30;77.80;;;;;;5074034;28;20040;-81
2023/09/10 00:52:25;;;;;;;4.70;4.30;;;27.20;77.70;;;;;;5073545;28;20024;-80
2023/09/10 00:54:51;;;;;;;4.10;3.70;;;27.30;77.80;;;;;;5073725;28;20036;-81
2023/09/10 00:57:16;;;;;;;4.13;3.72;;;27.20;77.90;;;;;;5074202;28;20043;-80
2023/09/10 00:59:42;;;;;;;5.72;4.13;;;27.20;78.00;;;;;;5056638;28;20032;-81
2023/09/10 01:02:09;;;;;;;5.88;5.32;;;27.20;78.00;;;;;;5074071;28;20074;-80
2023/09/10 01:04:35;;;;;;;6.45;4.32;;;27.20;77.90;;;;;;5074405;28;20028;-80
2023/09/10 01:07:02;;;;;;;6.60;5.95;;;27.20;78.00;;;;;;5074186;28;20028;-80
2023/09/10 01:09:28;;;;;;;4.88;4.38;;;27.10;78.00;;;;;;5073604;28;20035;-80
2023/09/10 01:12:09;;;;;;;5.22;4.32;;;27.10;78.10;;;;;;5073660;28;20115;-80
2023/09/10 01:14:53;;;;;;;4.30;3.90;;;27.10;78.30;;;;;;5073465;28;20035;-80
2023/09/10 01:18:08;;;;;;;4.32;3.92;;;27.10;78.40;;;;;;5074083;28;20356;-80
2023/09/10 01:20:49;;;;;;;4.88;4.47;;;27.00;78.40;;;;;;5011422;28;20070;-81
2023/09/10 01:23:24;;;;;;;4.38;3.80;;;27.10;78.60;;;;;;5067164;28;20044;-81
2023/09/10 01:25:51;;;;;;;5.07;4.68;;;27.00;78.50;;;;;;5073588;28;20031;-80
2023/09/10 01:28:17;;;;;;;4.85;4.00;;;27.00;78.70;;;;;;5074175;28;20033;-80
2023/09/10 01:30:43;;;;;;;4.53;4.13;;;27.00;78.90;;;;;;5056334;28;20482;-80
2023/09/10 01:33:13;;;;;;;4.88;4.38;;;27.00;78.90;;;;;;5073244;28;20465;-80
2023/09/10 01:36:11;;;;;;;4.22;3.83;;;27.00;78.90;;;;;;5072929;28;20031;-80
2023/09/10 01:38:43;;;;;;;6.63;4.57;;;27.00;79.10;;;;;;5072867;28;20048;-80
2023/09/10 01:41:19;;;;;;;5.50;4.60;;;26.90;78.90;;;;;;5073061;28;20036;-80
2023/09/10 01:43:46;;;;;;;6.75;4.00;;;26.90;79.00;;;;;;5055646;28;20040;-81
2023/09/10 01:46:12;;;;;;;4.63;4.22;;;26.90;79.10;;;;;;5073320;28;20021;-80
2023/09/10 01:48:38;;;;;;;4.72;4.30;;;26.90;79.20;;;;;;5055999;28;20052;-80
2023/09/10 01:51:04;;;;;;;3.88;3.55;;;26.90;79.20;;;;;;5072243;28;20043;-80
2023/09/10 01:53:30;;;;;;;11.20;7.85;;;26.90;79.20;;;;;;5072722;28;20028;-80
2023/09/10 01:55:56;;;;;;;8.85;6.70;;;26.90;79.00;;;;;;5073164;28;20033;-80
2023/09/10 01:58:22;;;;;;;6.85;6.15;;;26.80;78.80;;;;;;5076908;28;20033;-81
2023/09/10 02:00:48;;;;;;;5.35;4.85;;;26.70;78.90;;;;;;5077453;28;20048;-79
2023/09/10 02:03:13;;;;;;;6.40;5.80;;;26.60;79.20;;;;;;5077066;28;20032;-80
2023/09/10 02:05:41;;;;;;;7.10;5.95;;;26.60;79.50;;;;;;5059606;28;20347;-80
2023/09/10 02:08:07;;;;;;;5.10;4.57;;;26.60;79.50;;;;;;5076590;28;20082;-80
2023/09/10 02:10:33;;;;;;;6.57;5.97;;;26.50;79.60;;;;;;5076262;28;20427;-79
2023/09/10 02:12:59;;;;;;;8.23;7.43;;;26.50;79.70;;;;;;5075310;28;20029;-79
2023/09/10 02:15:24;;;;;;;7.47;5.82;;;26.50;79.50;;;;;;5076659;28;20468;-80
2023/09/10 02:17:52;;;;;;;10.32;8.25;;;26.50;79.70;;;;;;5076419;28;20082;-80
2023/09/10 02:20:18;;;;;;;6.47;5.95;;;26.40;79.60;;;;;;5076437;28;20051;-79
2023/09/10 02:22:43;;;;;;;7.53;6.72;;;26.30;79.80;;;;;;5076126;28;20120;-80
2023/09/10 02:25:09;;;;;;;8.98;6.85;;;26.30;79.90;;;;;;5076917;28;20334;-81
2023/09/10 02:27:35;;;;;;;5.40;4.82;;;26.30;80.10;;;;;;5076187;28;20362;-80
2023/09/10 02:30:04;;;;;;;8.80;7.90;;;26.20;80.10;;;;;;5076392;28;20045;-80
2023/09/10 02:32:32;;;;;;;9.63;7.88;;;26.20;80.30;;;;;;5076095;28;20028;-80
2023/09/10 02:34:57;;;;;;;6.05;5.45;;;26.20;80.10;;;;;;5076072;28;20024;-80
2023/09/10 02:37:23;;;;;;;8.65;7.85;;;26.10;80.10;;;;;;5058286;28;20056;-81
2023/09/10 02:39:49;;;;;;;6.30;5.70;;;26.00;80.20;;;;;;5058054;28;20046;-79
2023/09/10 02:42:14;;;;;;;5.85;5.25;;;26.00;80.50;;;;;;5058445;28;20039;-80
2023/09/10 02:44:40;;;;;;;5.50;5.00;;;26.00;80.70;;;;;;5076237;28;20411;-81
2023/09/10 02:47:06;;;;;;;9.63;8.57;;;26.00;80.90;;;;;;5058542;28;20051;-80
2023/09/10 02:49:33;;;;;;;7.47;6.78;;;26.10;80.70;;;;;;5076283;28;20435;-80
2023/09/10 02:51:58;;;;;;;5.57;5.07;;;26.10;80.60;;;;;;5076082;28;20102;-80
2023/09/10 02:54:24;;;;;;;5.32;4.88;;;26.10;80.70;;;;;;5075063;28;20445;-79
2023/09/10 02:56:50;;;;;;;4.68;4.28;;;26.10;81.00;;;;;;5058458;28;20089;-80
2023/09/10 02:59:21;;;;;;;5.43;4.50;;;26.10;81.20;;;;;;5075691;28;20029;-80
2023/09/10 03:01:47;;;;;;;4.88;4.47;;;26.20;81.30;;;;;;5058316;28;20060;-79
2023/09/10 03:04:16;;;;;;;9.43;6.78;;;26.20;81.20;;;;;;5058467;28;20032;-79
2023/09/10 03:06:47;;;;;;;10.35;7.65;;;26.20;81.20;;;;;;5075135;28;20078;-80
2023/09/10 03:09:14;;;;;;;7.45;6.38;;;26.20;80.80;;;;;;5074029;28;20035;-80
2023/09/10 03:11:41;;;;;;;8.05;7.35;;;26.20;80.70;;;;;;5075390;28;20024;-80
2023/09/10 03:14:07;;;;;;;5.32;4.82;;;26.20;80.80;;;;;;5075073;28;20484;-80
2023/09/10 03:16:34;;;;;;;5.07;4.63;;;26.20;80.80;;;;;;5057202;28;20033;-81
2023/09/10 03:19:00;;;;;;;5.53;5.05;;;26.20;81.20;;;;;;5057820;28;20039;-79
2023/09/10 03:21:27;;;;;;;5.40;5.00;;;26.20;81.20;;;;;;5074810;28;20036;-80
2023/09/10 03:23:53;;;;;;;4.90;4.50;;;26.20;81.20;;;;;;5075129;28;20093;-79
2023/09/10 03:26:19;;;;;;;5.72;4.22;;;26.20;81.30;;;;;;5075099;28;20024;-80
2023/09/10 03:28:45;;;;;;;8.85;5.32;;;26.20;81.30;;;;;;5075178;28;20366;-79
2023/09/10 03:31:10;;;;;;;5.10;4.68;;;26.20;81.30;;;;;;5075394;28;20039;-80
2023/09/10 03:33:36;;;;;;;6.88;6.18;;;26.20;81.20;;;;;;5075227;28;20042;-80
2023/09/10 03:36:02;;;;;;;4.75;4.35;;;26.20;81.00;;;;;;5075516;28;20116;-80
2023/09/10 03:38:28;;;;;;;5.55;5.05;;;26.20;81.20;;;;;;5075810;28;20048;-79
2023/09/10 03:40:54;;;;;;;5.88;5.32;;;26.20;81.20;;;;;;5075315;28;20028;-79
2023/09/10 03:43:20;;;;;;;12.98;6.85;;;26.20;81.30;;;;;;5074865;28;20385;-80
2023/09/10 03:45:46;;;;;;;6.47;5.88;;;26.20;81.40;;;;;;5075182;28;20483;-80
2023/09/10 03:48:12;;;;;;;12.63;10.50;;;26.10;81.20;;;;;;5075151;28;20426;-80
2023/09/10 03:50:38;;;;;;;6.78;4.53;;;26.10;80.90;;;;;;5075154;28;20036;-80
2023/09/10 03:53:04;;;;;;;10.27;7.88;;;26.00;81.10;;;;;;5075247;28;20484;-80
2023/09/10 03:55:30;;;;;;;4.85;4.45;;;26.00;81.20;;;;;;5075635;28;20033;-80
2023/09/10 03:57:56;;;;;;;5.68;5.13;;;26.00;81.40;;;;;;5075677;28;20027;-79
2023/09/10 04:00:22;;;;;;;9.95;8.95;;;26.00;81.60;;;;;;5075415;28;20044;-80
2023/09/10 04:02:47;;;;;;;6.70;6.10;;;26.00;81.20;;;;;;5075336;28;20079;-80
2023/09/10 04:05:14;;;;;;;8.73;7.90;;;26.10;81.00;;;;;;5075478;28;20021;-80
2023/09/10 04:07:39;;;;;;;7.30;6.57;;;26.00;81.10;;;;;;5057861;28;20051;-80
2023/09/10 04:10:07;;;;;;;11.90;9.55;;;26.00;80.90;;;;;;5075295;28;20032;-80
2023/09/10 04:12:33;;;;;;;9.25;8.40;;;25.90;81.10;;;;;;5074752;28;20050;-79
2023/09/10 04:14:59;;;;;;;10.45;9.45;;;25.90;81.10;;;;;;5075534;28;20119;-80
2023/09/10 04:17:28;;;;;;;8.93;8.02;;;25.80;81.00;;;;;;5075070;28;20036;-80
2023/09/10 04:19:54;;;;;;;10.57;9.55;;;25.80;81.30;;;;;;5074279;28;20116;-79
2023/09/10 04:22:20;;;;;;;6.93;6.32;;;25.80;81.60;;;;;;5075592;28;20047;-79
2023/09/10 04:24:46;;;;;;;9.70;8.73;;;25.70;81.70;;;;;;5074732;28;20032;-80
2023/09/10 04:27:12;;;;;;;11.07;9.88;;;25.70;81.90;;;;;;5056004;28;20043;-79
2023/09/10 04:29:37;;;;;;;8.80;7.50;;;25.70;82.40;;;;;;5074013;28;20030;-80
2023/09/10 04:32:03;;;;;;;10.32;9.40;;;25.70;82.00;;;;;;5074580;28;20032;-79
2023/09/10 04:34:29;;;;;;;6.70;6.10;;;25.70;82.30;;;;;;5073699;28;20393;-79
2023/09/10 04:36:55;;;;;;;6.88;6.28;;;25.60;82.30;;;;;;5073604;28;20024;-79
2023/09/10 04:39:21;;;;;;;9.63;7.25;;;25.60;82.50;;;;;;5073651;28;20110;-79
2023/09/10 04:41:46;;;;;;;11.85;10.48;;;25.60;82.70;;;;;;5074041;28;20492;-81
2023/09/10 04:44:12;;;;;;;7.72;6.93;;;25.60;82.40;;;;;;5072774;28;20029;-80
2023/09/10 04:46:38;;;;;;;9.32;7.93;;;25.60;82.40;;;;;;5073566;28;20128;-80
2023/09/10 04:49:04;;;;;;;8.70;7.63;;;25.70;82.30;;;;;;5072590;28;20533;-80
2023/09/10 04:51:29;;;;;;;8.32;7.60;;;25.70;82.40;;;;;;5072578;28;20581;-80
2023/09/10 04:53:55;;;;;;;7.20;6.53;;;25.60;82.20;;;;;;5073942;28;20097;-80
2023/09/10 04:56:21;;;;;;;8.95;8.07;;;25.60;82.40;;;;;;5055887;28;20029;-79
2023/09/10 04:58:46;;;;;;;11.63;10.27;;;25.60;82.50;;;;;;5073640;28;20036;-80
2023/09/10 05:01:13;;;;;;;8.15;7.10;;;25.60;82.30;;;;;;5073236;28;20036;-81
2023/09/10 05:03:41;;;;;;;6.57;5.97;;;25.60;82.30;;;;;;5073533;28;20031;-80
2023/09/10 05:06:07;;;;;;;9.10;8.25;;;25.60;82.60;;;;;;5073470;28;20046;-80
2023/09/10 05:08:33;;;;;;;5.95;5.45;;;25.50;82.30;;;;;;5073508;28;20025;-80
2023/09/10 05:10:59;;;;;;;6.53;5.93;;;25.50;82.80;;;;;;5073318;28;20112;-80
2023/09/10 05:13:25;;;;;;;6.72;6.05;;;25.50;83.10;;;;;;5073422;28;20056;-80
2023/09/10 05:15:54;;;;;;;7.00;6.30;;;25.50;83.20;;;;;;5055972;28;20078;-80
2023/09/10 05:18:26;;;;;;;8.88;8.02;;;25.60;82.90;;;;;;5073035;28;20044;-80
2023/09/10 05:20:53;;;;;;;10.07;8.65;;;25.60;82.50;;;;;;5073631;28;20098;-79
2023/09/10 05:23:23;;;;;;;9.77;8.77;;;25.50;82.50;;;;;;5073686;28;20090;-80
2023/09/10 05:25:51;;;;;;;7.60;6.93;;;25.50;82.40;;;;;;5055366;28;20032;-80
2023/09/10 05:28:17;;;;;;;6.95;6.35;;;25.50;82.60;;;;;;5073325;28;20044;-80
2023/09/10 05:30:43;;;;;;;11.18;9.38;;;25.50;82.70;;;;;;5073969;28;20029;-80
2023/09/10 05:33:09;;;;;;;6.30;5.70;;;25.50;82.50;;;;;;5076917;28;20377;-80
2023/09/10 05:35:34;;;;;;;12.45;11.15;;;25.50;82.50;;;;;;5077922;28;20347;-80
2023/09/10 05:38:00;;;;;;;8.50;7.70;;;25.60;82.60;;;;;;5077293;28;20052;-80
2023/09/10 05:40:27;;;;;;;11.45;10.25;;;25.40;82.60;;;;;;5076595;28;20489;-80
2023/09/10 05:42:53;;;;;;;9.60;8.70;;;25.50;82.60;;;;;;5075786;28;20041;-80
2023/09/10 05:45:19;;;;;;;7.10;6.22;;;25.50;82.50;;;;;;5077271;28;20380;-80
2023/09/10 05:47:45;;;;;;;7.82;7.05;;;25.50;82.60;;;;;;5076959;28;20024;-80
2023/09/10 05:50:11;;;;;;;8.15;7.43;;;25.50;82.70;;;;;;5076994;28;20032;-81
2023/09/10 05:52:36;;;;;;;6.45;5.85;;;25.40;82.60;;;;;;5076838;28;20468;-81
2023/09/10 05:55:03;;;;;;;8.85;8.00;;;25.30;83.00;;;;;;5076984;28;20050;-81
2023/09/10 05:57:28;;;;;;;12.50;11.20;;;25.30;83.20;;;;;;5076783;28;20086;-81
2023/09/10 05:59:54;;;;;;;11.55;10.07;;;25.40;83.00;;;;;;5075210;28;20120;-81
2023/09/10 06:02:20;;;;;;;10.93;9.82;;;25.40;82.80;;;;;;5076638;28;20174;-79
2023/09/10 06:04:45;;;;;;;12.93;11.57;;;25.40;82.90;;;;;;5058979;28;20035;-80
2023/09/10 06:07:11;;;;;;;12.90;11.57;;;25.40;82.60;;;;;;5076908;28;20107;-80
2023/09/10 06:09:36;;;;;;;12.65;11.40;;;25.40;82.70;;;;;;5059376;28;20472;-80
2023/09/10 06:12:02;;;;;;;10.93;9.75;;;25.40;82.60;;;;;;5076665;28;20032;-80
2023/09/10 06:14:30;;;;;;;12.73;11.52;;;25.30;82.50;;;;;;5076911;28;20417;-81
2023/09/10 06:16:56;;;;;;;8.98;7.93;;;25.30;82.70;;;;;;5076395;28;20079;-80
2023/09/10 06:19:22;;;;;;;12.32;11.13;;;25.30;82.80;;;;;;5059276;28;20032;-79
2023/09/10 06:21:47;;;;;;;12.02;10.50;;;25.20;83.10;;;;;;5076646;28;20036;-80
2023/09/10 06:24:13;;;;;;;18.27;16.00;;;25.20;83.20;;;;;;5076132;28;20035;-80
2023/09/10 06:26:39;;;;;;;17.52;15.80;;;25.00;83.50;;;;;;5076342;28;20464;-81
2023/09/10 06:29:05;;;;;;;12.75;10.55;;;25.00;84.00;;;;;;5075750;28;20036;-80
2023/09/10 06:31:30;;;;;;;14.60;13.20;;;24.80;84.80;;;;;;5076657;28;20033;-80
2023/09/10 06:33:57;;;;;;;16.23;14.07;;;24.80;85.20;;;;;;5075424;28;20067;-80
2023/09/10 06:36:23;;;;;;;17.73;15.48;;;24.80;85.10;;;;;;5076268;28;20439;-80
2023/09/10 06:38:48;;;;;;;9.30;8.40;;;24.70;85.20;;;;;;5076195;28;20048;-80
2023/09/10 06:41:15;;;;;;;11.75;10.32;;;24.70;85.50;;;;;;5076031;28;20048;-80
2023/09/10 06:43:41;;;;;;;16.83;13.93;;;24.60;85.60;;;;;;5075592;28;20033;-82
2023/09/10 06:46:07;;;;;;;12.55;11.25;;;24.70;85.70;;;;;;5075112;28;20065;-80
2023/09/10 06:48:32;;;;;;;13.80;12.38;;;24.80;85.50;;;;;;5075550;28;20488;-81
2023/09/10 06:51:00;;;;;;;15.75;14.10;;;24.80;85.50;;;;;;5075883;28;20032;-80
2023/09/10 06:53:27;;;;;;;15.70;14.05;;;24.80;85.90;;;;;;5058353;28;20111;-80
2023/09/10 06:55:53;;;;;;;16.13;14.52;;;24.80;85.80;;;;;;5075895;28;20032;-80
2023/09/10 06:58:19;;;;;;;11.77;10.60;;;24.90;85.90;;;;;;5058731;28;20516;-79
2023/09/10 07:00:45;;;;;;;9.95;9.02;;;25.00;86.00;;;;;;5058113;28;20116;-81
2023/09/10 07:03:13;;;;;;;16.55;13.82;;;25.00;85.80;;;;;;5075708;28;20031;-81
2023/09/10 07:05:40;;;;;;;15.25;13.70;;;25.20;85.70;;;;;;5075688;28;20024;-81
2023/09/10 07:08:06;;;;;;;19.30;14.93;;;25.20;85.80;;;;;;5075579;28;20063;-80
2023/09/10 07:10:33;;;;;;;16.15;14.45;;;25.20;85.90;;;;;;5057617;28;20032;-80
2023/09/10 07:12:59;;;;;;;20.80;16.38;;;25.20;86.20;;;;;;5075962;28;20424;-80
2023/09/10 07:15:24;;;;;;;14.60;13.15;;;25.30;86.50;;;;;;5076089;28;20029;-79
2023/09/10 07:17:50;;;;;;;17.50;15.68;;;25.40;86.60;;;;;;5075543;28;20028;-79
2023/09/10 07:20:16;;;;;;;16.90;15.30;;;25.40;86.70;;;;;;5075489;28;20087;-80
2023/09/10 07:22:42;;;;;;;16.02;13.38;;;25.40;86.50;;;;;;5074280;28;20458;-81
2023/09/10 07:25:08;;;;;;;18.20;16.30;;;25.50;86.40;;;;;;5075282;28;20032;-80
2023/09/10 07:27:34;;;;;;;15.00;13.55;;;25.50;86.10;;;;;;5075291;28;20033;-79
2023/09/10 07:29:59;;;;;;;18.77;16.85;;;25.60;86.20;;;;;;5075654;28;20043;-81
2023/09/10 07:32:25;;;;;;;18.13;16.10;;;25.60;86.40;;;;;;5075471;28;20032;-79
2023/09/10 07:34:51;;;;;;;19.27;15.75;;;25.60;86.60;;;;;;5075324;28;20020;-79
2023/09/10 07:37:16;;;;;;;18.55;15.50;;;25.70;87.30;;;;;;5074901;28;20035;-81
2023/09/10 07:39:43;;;;;;;13.48;12.27;;;25.70;86.90;;;;;;5075363;28;20128;-80
2023/09/10 07:42:08;;;;;;;20.60;18.38;;;25.90;86.40;;;;;;5075234;28;20068;-79
2023/09/10 07:44:34;;;;;;;21.52;18.27;;;26.00;86.00;;;;;;5056919;28;20334;-81
2023/09/10 07:47:00;;;;;;;19.70;17.70;;;26.00;86.00;;;;;;5057300;28;20036;-80
2023/09/10 07:49:26;;;;;;;16.38;14.55;;;26.10;87.90;;;;;;5074711;28;20427;-79
2023/09/10 07:51:51;;;;;;;23.92;21.10;;;26.10;87.10;;;;;;5074542;28;20036;-80
2023/09/10 07:54:17;;;;;;;21.52;19.33;;;26.20;86.50;;;;;;5056240;28;20029;-81
2023/09/10 07:56:45;;;;;;;19.20;17.15;;;26.20;86.70;;;;;;5074519;28;20108;-80
2023/09/10 07:59:11;;;;;;;15.73;14.13;;;26.30;86.10;;;;;;5074438;28;20040;-80
2023/09/10 08:01:40;;;;;;;25.55;22.75;;;26.40;86.00;;;;;;5057308;28;20384;-80
2023/09/10 08:04:06;;;;;;;19.08;17.02;;;26.50;85.90;;;;;;5074581;28;20111;-81
2023/09/10 08:06:32;;;;;;;25.17;22.48;;;26.50;85.70;;;;;;5074112;28;20056;-81
2023/09/10 08:08:58;;;;;;;25.77;21.92;;;26.50;85.30;;;;;;5074172;28;20025;-80
2023/09/10 08:11:23;;;;;;;14.38;12.95;;;26.60;85.50;;;;;;5074390;28;20546;-81
2023/09/10 08:13:50;;;;;;;18.77;16.63;;;26.60;85.60;;;;;;5073082;28;20032;-81
2023/09/10 08:16:17;;;;;;;23.40;20.88;;;26.80;85.70;;;;;;5074129;28;20044;-80
2023/09/10 08:18:44;;;;;;;19.30;16.73;;;26.90;85.60;;;;;;5074144;28;20164;-80
2023/09/10 08:21:11;;;;;;;23.25;20.45;;;26.90;85.20;;;;;;5073567;28;20548;-80
2023/09/10 08:23:36;;;;;;;25.23;22.67;;;27.00;85.70;;;;;;5072822;28;20094;-81
2023/09/10 08:26:02;;;;;;;20.02;17.83;;;27.10;86.50;;;;;;5073910;28;20461;-80
2023/09/10 08:28:28;;;;;;;24.00;21.48;;;27.10;85.80;;;;;;5073819;28;20033;-80
2023/09/10 08:30:54;;;;;;;25.85;23.00;;;27.20;86.00;;;;;;5072587;28;20033;-80
2023/09/10 08:33:26;;;;;;;25.52;22.15;;;27.30;86.00;;;;;;5074230;28;20029;-81
2023/09/10 08:35:52;;;;;;;;;;;27.20;85.60;;;;;;5074497;28;20033;-79
2023/09/10 08:38:18;;;;;;;31.88;27.05;;;27.20;85.60;;;;;;5073824;28;19920;-81
2023/09/10 08:41:00;;;;;;;25.05;21.25;;;27.30;85.30;;;;;;5073640;28;20031;-81
2023/09/10 08:43:39;;;;;;;29.27;23.85;;;27.40;85.50;;;;;;5074176;28;20037;-80
2023/09/10 08:46:09;;;;;;;24.63;20.48;;;27.50;86.30;;;;;;5074681;28;20115;-80
2023/09/10 08:48:43;;;;;;;22.83;19.83;;;27.50;85.40;;;;;;5073702;28;20028;-80
2023/09/10 08:51:12;;;;;;;25.65;22.95;;;27.60;85.00;;;;;;5056167;28;20498;-80
2023/09/10 08:53:43;;;;;;;21.50;18.48;;;27.70;84.70;;;;;;5073751;28;20024;-80
2023/09/10 08:56:10;;;;;;;25.98;23.10;;;27.80;84.60;;;;;;5056309;28;20021;-80
2023/09/10 08:58:40;;;;;;;30.58;24.40;;;27.90;84.20;;;;;;5073500;28;20032;-81
2023/09/10 09:01:07;;;;;;;26.88;23.85;;;27.90;83.80;;;;;;5073421;28;20077;-81
2023/09/10 09:03:33;;;;;;;26.00;23.23;;;27.90;83.20;;;;;;5073315;28;20024;-81
2023/09/10 09:06:06;;;;;;;26.33;23.45;;;28.00;83.40;;;;;;5075231;28;20490;-81
2023/09/10 09:08:34;;;;;;;27.13;21.95;;;28.00;84.40;;;;;;5077978;28;20032;-80
2023/09/10 09:11:03;;;;;;;27.73;22.58;;;28.10;83.90;;;;;;5077526;28;20024;-80
2023/09/10 09:13:42;;;;;;;25.25;22.10;;;28.30;82.80;;;;;;5077513;28;20020;-80
2023/09/10 09:16:09;;;;;;;21.08;16.98;;;28.40;83.00;;;;;;5077561;28;20031;-80
2023/09/10 09:18:36;;;;;;;20.58;18.48;;;28.50;82.60;;;;;;5077408;28;20037;-81
2023/09/10 09:21:14;;;;;;;21.67;18.33;;;28.50;81.90;;;;;;5059227;28;20469;-81
2023/09/10 09:23:51;;;;;;;19.20;17.05;;;28.70;82.60;;;;;;5076995;28;20554;-80
2023/09/10 09:26:18;;;;;;;26.35;22.08;;;28.80;82.60;;;;;;5059200;28;20473;-81
2023/09/10 09:28:44;;;;;;;23.95;20.30;;;29.00;81.10;;;;;;5077116;28;20044;-80
2023/09/10 09:31:11;;;;;;;21.23;17.63;;;29.00;81.40;;;;;;5077311;28;20469;-80
2023/09/10 09:33:37;;;;;;;22.95;18.20;;;29.10;81.70;;;;;;5077400;28;20035;-81
2023/09/10 09:36:08;;;;;;;25.02;18.83;;;29.20;80.10;;;;;;5077068;28;20418;-80
2023/09/10 09:38:34;;;;;;;19.92;16.02;;;29.30;80.80;;;;;;5076983;28;20044;-79
2023/09/10 09:41:06;;;;;;;24.02;20.05;;;29.40;81.50;;;;;;5075721;28;20082;-80
2023/09/10 09:43:34;;;;;;;21.55;17.58;;;29.50;80.30;;;;;;5077345;28;20054;-80
2023/09/10 09:46:00;;;;;;;17.70;13.48;;;29.60;79.30;;;;;;5076933;28;20032;-80
2023/09/10 09:48:26;;;;;;;21.45;16.20;;;29.70;79.20;;;;;;5076985;28;20035;-79
2023/09/10 09:50:51;;;;;;;24.27;17.10;;;29.80;78.60;;;;;;5077006;28;20029;-79
2023/09/10 09:53:17;;;;;;;14.85;11.85;;;29.80;77.40;;;;;;5076877;28;20035;-81
2023/09/10 09:55:44;;;;;;;19.48;15.90;;;29.90;77.60;;;;;;5059543;28;20024;-80
2023/09/10 09:58:11;;;;;;;20.55;15.45;;;30.00;77.90;;;;;;5076442;28;20036;-81
2023/09/10 10:00:37;;;;;;;15.15;11.70;;;30.00;78.70;;;;;;5075372;28;20400;-81
2023/09/10 10:03:05;;;;;;;16.42;12.93;;;30.10;77.30;;;;;;5058805;28;20054;-81
2023/09/10 10:05:32;;;;;;;17.52;13.30;;;30.20;77.40;;;;;;5076846;28;20040;-81
2023/09/10 10:07:59;;;;;;;14.65;11.18;;;30.30;76.30;;;;;;5075337;28;20112;-81
2023/09/10 10:10:25;;;;;;;17.45;11.10;;;30.30;74.80;;;;;;5058690;28;20123;-80
2023/09/10 10:12:52;;;;;;;17.27;11.05;;;30.30;74.60;;;;;;5058399;28;20025;-79
2023/09/10 10:15:19;;;;;;;15.88;11.73;;;30.40;75.30;;;;;;5075679;28;20032;-81
2023/09/10 10:17:45;;;;;;;17.60;12.13;;;30.50;75.00;;;;;;5075320;28;20082;-80
2023/09/10 10:20:13;;;;;;;17.35;10.80;;;30.60;74.70;;;;;;5076028;28;20507;-79
2023/09/10 10:22:39;;;;;;;19.85;11.18;;;30.70;74.50;;;;;;5076736;28;20351;-80
2023/09/10 10:25:06;;;;;;;15.05;11.52;;;30.80;74.90;;;;;;5058258;28;20032;-81
2023/09/10 10:27:36;;;;;;;16.25;9.10;;;30.90;76.00;;;;;;5075713;28;20111;-80
2023/09/10 10:30:03;;;;;;;15.93;9.65;;;31.00;75.40;;;;;;5076108;28;20041;-80
2023/09/10 10:32:42;;;;;;;13.50;10.15;;;31.10;73.60;;;;;;5058712;28;20028;-79
2023/09/10 10:35:10;;;;;;;16.50;9.93;;;31.20;74.40;;;;;;5074944;28;20028;-81
2023/09/10 10:37:50;;;;;;;15.95;9.98;;;31.30;73.40;;;;;;5075983;28;20024;-80
2023/09/10 10:40:25;;;;;;;9.57;7.18;;;31.30;72.60;;;;;;5075965;28;20035;-81
2023/09/10 10:42:57;;;;;;;8.95;7.40;;;31.30;73.10;;;;;;5076074;28;20423;-79
2023/09/10 10:45:25;;;;;;;9.00;8.10;;;31.40;74.20;;;;;;5075917;28;20461;-79
2023/09/10 10:47:50;;;;;;;16.33;9.50;;;31.50;73.20;;;;;;5058043;28;20024;-81
2023/09/10 10:50:24;;;;;;;11.30;8.43;;;31.70;73.20;;;;;;5075868;28;20123;-80
2023/09/10 10:53:04;;;;;;;10.68;8.70;;;31.70;72.70;;;;;;5075932;28;20051;-79
2023/09/10 10:55:33;;;;;;;13.57;8.15;;;31.80;73.60;;;;;;5076052;28;20078;-80
2023/09/10 10:58:00;;;;;;;14.00;11.30;;;31.90;73.00;;;;;;5075713;28;20029;-81
2023/09/10 11:00:27;;;;;;;17.38;9.00;;;31.90;71.60;;;;;;5074782;28;20089;-79
2023/09/10 11:03:13;;;;;;;14.65;9.25;;;31.90;72.50;;;;;;5057455;28;20032;-79
2023/09/10 11:05:54;;;;;;;12.23;7.25;;;32.00;73.40;;;;;;5075876;28;20020;-80
2023/09/10 11:08:36;;;;;;;14.17;9.23;;;32.00;72.10;;;;;;5075656;28;20481;-81
2023/09/10 11:11:04;;;;;;;11.55;7.63;;;32.10;73.60;;;;;;5075380;28;20278;-81
2023/09/10 11:13:31;;;;;;;9.57;6.88;;;32.10;72.40;;;;;;5075152;28;20033;-80
2023/09/10 11:16:06;;;;;;;10.98;7.03;;;32.20;71.90;;;;;;5074085;28;20059;-80
2023/09/10 11:18:35;;;;;;;11.88;7.50;;;32.30;71.60;;;;;;5075936;28;20048;-81
2023/09/10 11:21:07;;;;;;;13.10;7.97;;;32.40;72.20;;;;;;5057010;28;20040;-80
2023/09/10 11:23:37;;;;;;;13.98;8.13;;;32.40;72.80;;;;;;5075572;28;20125;-80
2023/09/10 11:26:15;;;;;;;10.27;7.57;;;32.40;72.00;;;;;;5075498;28;20025;-80
2023/09/10 11:28:44;;;;;;;12.35;6.80;;;32.50;72.60;;;;;;5074358;28;20025;-80
2023/09/10 11:31:36;;;;;;;12.60;7.90;;;32.50;72.00;;;;;;5074860;28;20040;-80
2023/09/10 11:34:22;;;;;;;18.42;8.65;;;32.60;71.50;;;;;;5057557;28;20025;-80
2023/09/10 11:36:51;;;;;;;10.43;6.22;;;32.70;72.30;;;;;;5075668;28;20047;-80
2023/09/10 11:39:18;;;;;;;16.55;7.20;;;32.80;71.40;;;;;;5074342;28;20139;-80
2023/09/10 11:41:55;;;;;;;12.18;7.40;;;32.90;71.20;;;;;;5074240;28;20477;-80
2023/09/10 11:44:20;;;;;;;12.75;7.47;;;32.90;71.20;;;;;;5073517;28;20043;-80
2023/09/10 11:46:46;;;;;;;14.18;7.10;;;32.90;71.50;;;;;;5074726;28;20028;-80
2023/09/10 11:49:13;;;;;;;10.70;6.63;;;32.90;70.60;;;;;;5074212;28;20059;-79
2023/09/10 11:51:47;;;;;;;12.27;6.82;;;33.00;70.40;;;;;;5074915;28;20078;-80
2023/09/10 11:54:16;;;;;;;10.45;6.93;;;33.10;69.00;;;;;;5075023;28;20029;-81
2023/09/10 11:56:45;;;;;;;8.30;5.70;;;33.20;68.80;;;;;;5056351;28;20032;-80
2023/09/10 11:59:16;;;;;;;8.75;5.50;;;33.20;68.20;;;;;;5074697;28;20031;-81
2023/09/10 12:01:42;;;;;;;8.57;5.50;;;33.20;68.40;;;;;;5074649;28;20483;-81
2023/09/10 12:04:08;;;;;;;8.40;5.63;;;33.30;68.00;;;;;;5074022;28;20093;-81
2023/09/10 12:06:34;;;;;;;9.60;6.20;;;33.30;68.80;;;;;;5056258;28;20392;-81
2023/09/10 12:08:59;;;;;;;6.60;5.18;;;33.30;68.20;;;;;;5074396;28;20024;-81
2023/09/10 12:11:27;;;;;;;6.57;5.00;;;33.40;67.90;;;;;;5074760;28;20111;-81
2023/09/10 12:13:53;;;;;;;12.40;5.93;;;33.40;67.20;;;;;;5074143;28;20062;-79
2023/09/10 12:16:19;;;;;;;7.68;5.18;;;33.40;67.00;;;;;;5074472;28;20029;-80
2023/09/10 12:18:46;;;;;;;10.70;5.32;;;33.50;67.50;;;;;;5056694;28;20037;-80
2023/09/10 12:21:14;;;;;;;10.43;5.82;;;33.50;66.80;;;;;;5057750;28;20036;-80
2023/09/10 12:23:41;;;;;;;8.60;5.13;;;33.50;67.60;;;;;;5075434;28;20043;-81
2023/09/10 12:26:07;;;;;;;8.50;4.90;;;33.60;67.90;;;;;;5057395;28;20087;-80
2023/09/10 12:28:33;;;;;;;8.65;5.10;;;33.70;66.70;;;;;;5074457;28;20108;-81
2023/09/10 12:30:59;;;;;;;10.10;5.97;;;33.70;67.60;;;;;;5073688;28;20025;-80
2023/09/10 12:33:25;;;;;;;8.88;4.70;;;33.90;67.30;;;;;;5072708;28;20421;-80
2023/09/10 12:35:51;;;;;;;9.07;5.22;;;34.00;66.50;;;;;;5056682;28;20036;-80
2023/09/10 12:38:18;;;;;;;9.10;5.38;;;34.00;66.00;;;;;;5055590;28;20049;-80
2023/09/10 12:40:50;;;;;;;8.68;5.00;;;34.00;66.00;;;;;;5056047;28;20496;-81